sensor_id;sensor_type;location;lat;lon;timestamp;pressure;altitude;pressure_sealevel;temperature;humidity
61805;BME280;47725;47.912;7.356;2023-09-19T00:03:55;99031.09;;;21.70;58.38
61805;BME280;47725;47.912;7.356;2023-09-19T00:07:56;99034.84;;;21.66;58.24
61805;BME280;47725;47.912;7.356;2023-09-19T00:11:55;99039.14;;;21.62;58.34
61805;BME280;47725;47.912;7.356;2023-09-19T00:15:55;99044.12;;;21.59;58.33
61805;BME280;47725;47.912;7.356;2023-09-19T00:19:55;99046.80;;;21.56;58.31
61805;BME280;47725;47.912;7.356;2023-09-19T00:23:55;99047.73;;;21.54;58.35
61805;BME280;47725;47.912;7.356;2023-09-19T00:27:55;99047.92;;;21.50;58.51
61805;BME280;47725;47.912;7.356;2023-09-19T00:31:55;99048.58;;;21.47;58.54
61805;BME280;47725;47.912;7.356;2023-09-19T00:35:56;99048.35;;;21.46;58.38
61805;BME280;47725;47.912;7.356;2023-09-19T00:39:55;99049.19;;;21.44;58.37
61805;BME280;47725;47.912;7.356;2023-09-19T00:43:55;99048.91;;;21.42;58.21
61805;BME280;47725;47.912;7.356;2023-09-19T00:47:55;99048.92;;;21.40;58.34
61805;BME280;47725;47.912;7.356;2023-09-19T00:51:55;99050.83;;;21.38;58.45
61805;BME280;47725;47.912;7.356;2023-09-19T00:55:55;99053.70;;;21.34;58.57
61805;BME280;47725;47.912;7.356;2023-09-19T00:59:55;99055.98;;;21.30;58.74
61805;BME280;47725;47.912;7.356;2023-09-19T01:03:55;99056.93;;;21.24;58.95
61805;BME280;47725;47.912;7.356;2023-09-19T01:07:55;99058.04;;;21.19;59.05
61805;BME280;47725;47.912;7.356;2023-09-19T01:11:57;99061.38;;;21.16;58.90
61805;BME280;47725;47.912;7.356;2023-09-19T01:15:59;99063.58;;;21.14;58.98
61805;BME280;47725;47.912;7.356;2023-09-19T01:20:03;99065.39;;;21.12;58.99
61805;BME280;47725;47.912;7.356;2023-09-19T01:28:04;99072.69;;;21.09;58.89
61805;BME280;47725;47.912;7.356;2023-09-19T01:31:57;99075.62;;;21.06;59.04
61805;BME280;47725;47.912;7.356;2023-09-19T01:35:55;99077.98;;;21.04;58.97
61805;BME280;47725;47.912;7.356;2023-09-19T01:39:56;99079.47;;;21.02;58.99
61805;BME280;47725;47.912;7.356;2023-09-19T01:43:55;99080.49;;;21.01;58.84
61805;BME280;47725;47.912;7.356;2023-09-19T01:47:55;99083.28;;;21.02;58.61
61805;BME280;47725;47.912;7.356;2023-09-19T01:52:05;99086.53;;;21.04;58.50
61805;BME280;47725;47.912;7.356;2023-09-19T01:55:55;99087.73;;;21.04;58.68
61805;BME280;47725;47.912;7.356;2023-09-19T02:00:05;99087.98;;;21.02;58.84
61805;BME280;47725;47.912;7.356;2023-09-19T02:03:55;99087.59;;;21.01;58.93
61805;BME280;47725;47.912;7.356;2023-09-19T02:07:55;99087.34;;;21.01;58.74
61805;BME280;47725;47.912;7.356;2023-09-19T02:11:55;99089.23;;;21.01;58.67
61805;BME280;47725;47.912;7.356;2023-09-19T02:15:55;99091.31;;;20.99;58.87
61805;BME280;47725;47.912;7.356;2023-09-19T02:19:55;99093.47;;;20.97;58.97
61805;BME280;47725;47.912;7.356;2023-09-19T02:23:55;99097.29;;;20.96;58.95
61805;BME280;47725;47.912;7.356;2023-09-19T02:27:55;99099.91;;;20.93;59.09
61805;BME280;47725;47.912;7.356;2023-09-19T02:31:55;99102.20;;;20.92;59.16
61805;BME280;47725;47.912;7.356;2023-09-19T02:35:55;99104.77;;;20.89;59.32
61805;BME280;47725;47.912;7.356;2023-09-19T02:39:55;99104.05;;;20.87;59.39
61805;BME280;47725;47.912;7.356;2023-09-19T02:43:55;99105.96;;;20.85;59.29
61805;BME280;47725;47.912;7.356;2023-09-19T02:47:55;99108.86;;;20.81;59.57
61805;BME280;47725;47.912;7.356;2023-09-19T02:51:55;99110.38;;;20.77;59.78
61805;BME280;47725;47.912;7.356;2023-09-19T02:55:55;99111.01;;;20.73;59.83
61805;BME280;47725;47.912;7.356;2023-09-19T02:59:55;99111.92;;;20.69;59.90
61805;BME280;47725;47.912;7.356;2023-09-19T03:03:55;99115.16;;;20.66;59.93
61805;BME280;47725;47.912;7.356;2023-09-19T03:07:55;99118.63;;;20.63;59.93
61805;BME280;47725;47.912;7.356;2023-09-19T03:11:55;99123.77;;;20.60;60.08
61805;BME280;47725;47.912;7.356;2023-09-19T03:15:55;99125.76;;;20.59;60.00
61805;BME280;47725;47.912;7.356;2023-09-19T03:19:55;99126.17;;;20.59;59.86
61805;BME280;47725;47.912;7.356;2023-09-19T03:23:55;99126.59;;;20.59;59.88
61805;BME280;47725;47.912;7.356;2023-09-19T03:27:56;99126.98;;;20.60;59.68
61805;BME280;47725;47.912;7.356;2023-09-19T03:31:55;99126.54;;;20.61;59.84
61805;BME280;47725;47.912;7.356;2023-09-19T03:35:55;99125.50;;;20.62;59.74
61805;BME280;47725;47.912;7.356;2023-09-19T03:39:55;99124.72;;;20.62;59.89
61805;BME280;47725;47.912;7.356;2023-09-19T03:43:55;99124.39;;;20.62;59.77
61805;BME280;47725;47.912;7.356;2023-09-19T03:47:55;99124.07;;;20.63;59.76
61805;BME280;47725;47.912;7.356;2023-09-19T03:51:55;99124.82;;;20.63;59.92
61805;BME280;47725;47.912;7.356;2023-09-19T03:55:55;99125.50;;;20.62;60.18
61805;BME280;47725;47.912;7.356;2023-09-19T03:59:55;99126.58;;;20.62;59.92
61805;BME280;47725;47.912;7.356;2023-09-19T04:03:55;99128.36;;;20.63;59.95
61805;BME280;47725;47.912;7.356;2023-09-19T04:07:55;99129.37;;;20.63;59.89
61805;BME280;47725;47.912;7.356;2023-09-19T04:11:55;99130.69;;;20.63;59.92
61805;BME280;47725;47.912;7.356;2023-09-19T04:15:55;99130.35;;;20.63;59.92
61805;BME280;47725;47.912;7.356;2023-09-19T04:19:55;99132.00;;;20.63;60.04
61805;BME280;47725;47.912;7.356;2023-09-19T04:23:55;99133.91;;;20.64;59.81
61805;BME280;47725;47.912;7.356;2023-09-19T04:27:55;99133.57;;;20.63;59.89
61805;BME280;47725;47.912;7.356;2023-09-19T04:31:55;99135.72;;;20.64;59.73
61805;BME280;47725;47.912;7.356;2023-09-19T04:35:55;99138.26;;;20.66;59.61
61805;BME280;47725;47.912;7.356;2023-09-19T04:39:55;99141.24;;;20.67;59.62
61805;BME280;47725;47.912;7.356;2023-09-19T04:43:55;99144.94;;;20.69;59.55
61805;BME280;47725;47.912;7.356;2023-09-19T04:47:55;99147.89;;;20.70;59.34
61805;BME280;47725;47.912;7.356;2023-09-19T04:51:55;99150.48;;;20.71;59.31
61805;BME280;47725;47.912;7.356;2023-09-19T04:55:55;99152.70;;;20.71;59.29
61805;BME280;47725;47.912;7.356;2023-09-19T04:59:55;99157.81;;;20.72;59.26
61805;BME280;47725;47.912;7.356;2023-09-19T05:03:55;99162.45;;;20.71;59.43
61805;BME280;47725;47.912;7.356;2023-09-19T05:07:55;99169.08;;;20.68;59.78
61805;BME280;47725;47.912;7.356;2023-09-19T05:11:55;99175.58;;;20.66;59.75
61805;BME280;47725;47.912;7.356;2023-09-19T05:15:55;99182.36;;;20.68;59.13
61805;BME280;47725;47.912;7.356;2023-09-19T05:19:55;99187.31;;;20.71;59.14
61805;BME280;47725;47.912;7.356;2023-09-19T05:23:55;99192.64;;;20.72;59.33
61805;BME280;47725;47.912;7.356;2023-09-19T05:27:58;99198.50;;;20.72;59.43
61805;BME280;47725;47.912;7.356;2023-09-19T05:31:55;99204.02;;;20.75;59.10
61805;BME280;47725;47.912;7.356;2023-09-19T05:35:55;99209.14;;;20.79;59.04
61805;BME280;47725;47.912;7.356;2023-09-19T05:39:55;99213.48;;;20.81;59.13
61805;BME280;47725;47.912;7.356;2023-09-19T05:43:55;99217.66;;;20.83;59.13
61805;BME280;47725;47.912;7.356;2023-09-19T05:47:55;99223.49;;;20.82;59.20
61805;BME280;47725;47.912;7.356;2023-09-19T05:51:55;99229.32;;;20.83;58.93
61805;BME280;47725;47.912;7.356;2023-09-19T05:55:55;99232.70;;;20.83;59.03
61805;BME280;47725;47.912;7.356;2023-09-19T05:59:55;99237.02;;;20.85;58.94
61805;BME280;47725;47.912;7.356;2023-09-19T06:03:55;99240.12;;;20.90;58.47
61805;BME280;47725;47.912;7.356;2023-09-19T06:07:55;99242.41;;;20.93;58.50
61805;BME280;47725;47.912;7.356;2023-09-19T06:11:55;99244.64;;;20.94;58.60
61805;BME280;47725;47.912;7.356;2023-09-19T06:15:55;99247.27;;;20.96;58.60
61805;BME280;47725;47.912;7.356;2023-09-19T06:19:55;99251.61;;;20.98;58.59
61805;BME280;47725;47.912;7.356;2023-09-19T06:23:55;99257.40;;;21.01;58.54
61805;BME280;47725;47.912;7.356;2023-09-19T06:27:55;99264.38;;;21.03;58.58
61805;BME280;47725;47.912;7.356;2023-09-19T06:31:55;99268.19;;;21.05;58.55
61805;BME280;47725;47.912;7.356;2023-09-19T06:35:55;99271.69;;;21.11;58.08
61805;BME280;47725;47.912;7.356;2023-09-19T06:39:55;99274.41;;;21.12;58.51
61805;BME280;47725;47.912;7.356;2023-09-19T06:43:55;99276.45;;;21.16;58.25
61805;BME280;47725;47.912;7.356;2023-09-19T06:47:55;99277.90;;;21.18;58.38
61805;BME280;47725;47.912;7.356;2023-09-19T06:51:55;99278.56;;;21.22;58.26
61805;BME280;47725;47.912;7.356;2023-09-19T06:55:55;99280.65;;;21.27;58.05
61805;BME280;47725;47.912;7.356;2023-09-19T06:59:55;99282.87;;;21.31;58.03
61805;BME280;47725;47.912;7.356;2023-09-19T07:03:55;99286.66;;;21.34;58.13
61805;BME280;47725;47.912;7.356;2023-09-19T07:07:55;99292.08;;;21.35;58.40
61805;BME280;47725;47.912;7.356;2023-09-19T07:11:55;99296.04;;;21.37;58.58
61805;BME280;47725;47.912;7.356;2023-09-19T07:15:55;99299.52;;;21.41;58.17
61805;BME280;47725;47.912;7.356;2023-09-19T07:19:55;99302.57;;;21.47;57.96
61805;BME280;47725;47.912;7.356;2023-09-19T07:23:55;99304.89;;;21.54;57.65
61805;BME280;47725;47.912;7.356;2023-09-19T07:27:55;99306.18;;;21.59;57.58
61805;BME280;47725;47.912;7.356;2023-09-19T07:31:55;99305.98;;;21.62;57.20
61805;BME280;47725;47.912;7.356;2023-09-19T07:35:54;99306.48;;;21.65;57.10
61805;BME280;47725;47.912;7.356;2023-09-19T07:39:55;99307.17;;;21.71;56.53
61805;BME280;47725;47.912;7.356;2023-09-19T07:43:55;99309.25;;;21.77;55.53
61805;BME280;47725;47.912;7.356;2023-09-19T07:47:55;99310.32;;;21.81;55.69
61805;BME280;47725;47.912;7.356;2023-09-19T07:51:55;99312.23;;;21.86;55.31
61805;BME280;47725;47.912;7.356;2023-09-19T07:56:01;99315.18;;;21.91;53.79
61805;BME280;47725;47.912;7.356;2023-09-19T07:59:54;99319.26;;;21.95;54.36
61805;BME280;47725;47.912;7.356;2023-09-19T08:03:54;99323.52;;;22.00;54.10
61805;BME280;47725;47.912;7.356;2023-09-19T08:07:54;99326.62;;;22.04;53.18
61805;BME280;47725;47.912;7.356;2023-09-19T08:11:54;99330.03;;;22.11;53.12
61805;BME280;47725;47.912;7.356;2023-09-19T08:15:54;99332.73;;;22.18;52.51
61805;BME280;47725;47.912;7.356;2023-09-19T08:19:54;99336.49;;;22.27;53.09
61805;BME280;47725;47.912;7.356;2023-09-19T08:23:54;99340.01;;;22.38;52.39
61805;BME280;47725;47.912;7.356;2023-09-19T08:27:55;99342.61;;;22.48;52.08
61805;BME280;47725;47.912;7.356;2023-09-19T08:31:55;99345.10;;;22.56;51.20
61805;BME280;47725;47.912;7.356;2023-09-19T08:35:55;99346.97;;;22.65;51.53
61805;BME280;47725;47.912;7.356;2023-09-19T08:39:54;99348.44;;;22.74;50.31
61805;BME280;47725;47.912;7.356;2023-09-19T08:43:58;99349.78;;;22.86;49.80
61805;BME280;47725;47.912;7.356;2023-09-19T08:48:11;99351.03;;;22.98;49.04
61805;BME280;47725;47.912;7.356;2023-09-19T08:51:59;99352.58;;;23.09;49.77
61805;BME280;47725;47.912;7.356;2023-09-19T08:55:55;99354.28;;;23.21;49.74
61805;BME280;47725;47.912;7.356;2023-09-19T08:59:55;99355.46;;;23.32;49.36
61805;BME280;47725;47.912;7.356;2023-09-19T09:03:55;99356.06;;;23.47;49.14
61805;BME280;47725;47.912;7.356;2023-09-19T09:07:54;99355.24;;;23.62;48.57
61805;BME280;47725;47.912;7.356;2023-09-19T09:11:54;99354.99;;;23.77;47.88
61805;BME280;47725;47.912;7.356;2023-09-19T09:15:54;99354.44;;;23.92;47.10
61805;BME280;47725;47.912;7.356;2023-09-19T09:19:54;99353.85;;;24.08;47.84
61805;BME280;47725;47.912;7.356;2023-09-19T09:23:57;99353.00;;;24.23;46.31
61805;BME280;47725;47.912;7.356;2023-09-19T09:28:01;99351.73;;;24.35;45.13
61805;BME280;47725;47.912;7.356;2023-09-19T09:31:54;99350.98;;;24.44;45.27
61805;BME280;47725;47.912;7.356;2023-09-19T09:35:55;99350.61;;;24.54;45.07
61805;BME280;47725;47.912;7.356;2023-09-19T09:40:01;99350.66;;;24.62;44.59
61805;BME280;47725;47.912;7.356;2023-09-19T09:43:54;99348.83;;;24.67;43.54
61805;BME280;47725;47.912;7.356;2023-09-19T09:47:54;99347.29;;;24.73;45.33
61805;BME280;47725;47.912;7.356;2023-09-19T09:56:07;99343.22;;;24.93;44.23
61805;BME280;47725;47.912;7.356;2023-09-19T09:59:58;99340.84;;;25.06;43.26
61805;BME280;47725;47.912;7.356;2023-09-19T10:03:57;99337.20;;;25.17;43.83
61805;BME280;47725;47.912;7.356;2023-09-19T10:07:54;99333.63;;;25.28;40.83
61805;BME280;47725;47.912;7.356;2023-09-19T10:12:03;99330.91;;;25.33;42.58
61805;BME280;47725;47.912;7.356;2023-09-19T10:15:54;99327.20;;;25.40;42.26
61805;BME280;47725;47.912;7.356;2023-09-19T10:19:55;99324.52;;;25.49;41.77
61805;BME280;47725;47.912;7.356;2023-09-19T10:23:54;99322.27;;;25.58;41.83
61805;BME280;47725;47.912;7.356;2023-09-19T10:27:54;99320.26;;;25.68;40.71
61805;BME280;47725;47.912;7.356;2023-09-19T10:31:54;99316.14;;;25.73;40.96
61805;BME280;47725;47.912;7.356;2023-09-19T10:35:54;99312.42;;;25.80;40.66
61805;BME280;47725;47.912;7.356;2023-09-19T10:39:54;99310.23;;;25.90;40.35
61805;BME280;47725;47.912;7.356;2023-09-19T10:43:54;99306.67;;;25.96;39.83
61805;BME280;47725;47.912;7.356;2023-09-19T10:47:54;99303.20;;;26.05;39.49
61805;BME280;47725;47.912;7.356;2023-09-19T10:51:55;99301.05;;;26.15;37.56
61805;BME280;47725;47.912;7.356;2023-09-19T10:55:55;99299.17;;;26.25;37.29
61805;BME280;47725;47.912;7.356;2023-09-19T11:00:04;99297.83;;;26.34;37.79
61805;BME280;47725;47.912;7.356;2023-09-19T11:04:20;99296.09;;;26.41;35.27
61805;BME280;47725;47.912;7.356;2023-09-19T11:07:57;99293.87;;;26.45;35.12
61805;BME280;47725;47.912;7.356;2023-09-19T11:11:54;99292.95;;;26.51;36.59
61805;BME280;47725;47.912;7.356;2023-09-19T11:31:54;99277.92;;;26.83;34.71
61805;BME280;47725;47.912;7.356;2023-09-19T11:36:13;99275.28;;;26.87;33.79
61805;BME280;47725;47.912;7.356;2023-09-19T11:40:07;99271.40;;;26.88;33.80
61805;BME280;47725;47.912;7.356;2023-09-19T11:47:54;99264.29;;;26.94;34.12
61805;BME280;47725;47.912;7.356;2023-09-19T11:51:54;99259.55;;;27.03;33.11
61805;BME280;47725;47.912;7.356;2023-09-19T11:55:54;99255.47;;;27.11;32.93
61805;BME280;47725;47.912;7.356;2023-09-19T11:59:54;99251.31;;;27.18;32.31
61805;BME280;47725;47.912;7.356;2023-09-19T12:03:55;99247.65;;;27.25;32.75
61805;BME280;47725;47.912;7.356;2023-09-19T12:07:54;99245.04;;;27.34;31.97
61805;BME280;47725;47.912;7.356;2023-09-19T12:11:54;99243.58;;;27.45;31.99
61805;BME280;47725;47.912;7.356;2023-09-19T12:15:55;99239.84;;;27.54;31.16
61805;BME280;47725;47.912;7.356;2023-09-19T12:19:55;99235.50;;;27.61;31.27
61805;BME280;47725;47.912;7.356;2023-09-19T12:23:58;99232.51;;;27.70;30.81
61805;BME280;47725;47.912;7.356;2023-09-19T12:27:54;99229.75;;;27.77;30.80
61805;BME280;47725;47.912;7.356;2023-09-19T12:31:55;99228.00;;;27.83;30.60
61805;BME280;47725;47.912;7.356;2023-09-19T12:35:54;99224.00;;;27.87;30.56
61805;BME280;47725;47.912;7.356;2023-09-19T12:40:02;99222.19;;;27.89;29.79
61805;BME280;47725;47.912;7.356;2023-09-19T12:43:54;99220.39;;;27.90;30.19
61805;BME280;47725;47.912;7.356;2023-09-19T12:51:54;99214.71;;;27.95;29.58
61805;BME280;47725;47.912;7.356;2023-09-19T12:56:00;99213.10;;;28.00;29.37
61805;BME280;47725;47.912;7.356;2023-09-19T12:59:54;99210.02;;;28.06;29.07
61805;BME280;47725;47.912;7.356;2023-09-19T13:04:16;99207.78;;;28.11;28.89
61805;BME280;47725;47.912;7.356;2023-09-19T13:07:54;99205.19;;;28.16;28.02
61805;BME280;47725;47.912;7.356;2023-09-19T13:11:54;99202.51;;;28.21;29.21
61805;BME280;47725;47.912;7.356;2023-09-19T13:15:55;99198.61;;;28.31;29.15
61805;BME280;47725;47.912;7.356;2023-09-19T13:19:54;99195.64;;;28.40;28.41
61805;BME280;47725;47.912;7.356;2023-09-19T13:23:55;99193.30;;;28.45;28.71
61805;BME280;47725;47.912;7.356;2023-09-19T13:27:55;99189.67;;;28.47;28.63
61805;BME280;47725;47.912;7.356;2023-09-19T13:31:54;99187.02;;;28.49;28.80
61805;BME280;47725;47.912;7.356;2023-09-19T13:35:54;99185.49;;;28.52;28.68
61805;BME280;47725;47.912;7.356;2023-09-19T13:39:54;99184.83;;;28.58;29.46
61805;BME280;47725;47.912;7.356;2023-09-19T13:43:54;99182.31;;;28.65;28.96
61805;BME280;47725;47.912;7.356;2023-09-19T13:47:54;99180.19;;;28.75;29.22
61805;BME280;47725;47.912;7.356;2023-09-19T13:51:54;99178.38;;;28.83;27.49
61805;BME280;47725;47.912;7.356;2023-09-19T13:55:54;99175.94;;;28.87;28.41
61805;BME280;47725;47.912;7.356;2023-09-19T13:59:54;99171.28;;;28.88;27.95
61805;BME280;47725;47.912;7.356;2023-09-19T14:03:54;99165.45;;;28.90;28.60
61805;BME280;47725;47.912;7.356;2023-09-19T14:07:54;99162.28;;;28.98;28.07
61805;BME280;47725;47.912;7.356;2023-09-19T14:11:54;99158.95;;;29.04;28.28
61805;BME280;47725;47.912;7.356;2023-09-19T14:15:54;99156.47;;;29.07;27.67
61805;BME280;47725;47.912;7.356;2023-09-19T14:19:54;99153.99;;;29.08;27.73
61805;BME280;47725;47.912;7.356;2023-09-19T14:23:54;99150.59;;;29.11;28.15
61805;BME280;47725;47.912;7.356;2023-09-19T14:27:54;99146.23;;;29.16;28.10
61805;BME280;47725;47.912;7.356;2023-09-19T14:31:54;99141.82;;;29.18;27.62
61805;BME280;47725;47.912;7.356;2023-09-19T14:35:54;99139.11;;;29.21;27.65
61805;BME280;47725;47.912;7.356;2023-09-19T14:39:54;99136.79;;;29.23;27.70
61805;BME280;47725;47.912;7.356;2023-09-19T14:43:54;99134.03;;;29.22;27.77
61805;BME280;47725;47.912;7.356;2023-09-19T14:47:55;99131.19;;;29.23;28.06
61805;BME280;47725;47.912;7.356;2023-09-19T14:51:54;99128.92;;;29.22;27.96
61805;BME280;47725;47.912;7.356;2023-09-19T14:55:54;99127.19;;;29.24;27.61
61805;BME280;47725;47.912;7.356;2023-09-19T14:59:54;99124.61;;;29.25;28.12
61805;BME280;47725;47.912;7.356;2023-09-19T15:03:54;99123.10;;;29.24;26.97
61805;BME280;47725;47.912;7.356;2023-09-19T15:07:54;99121.64;;;29.18;27.27
61805;BME280;47725;47.912;7.356;2023-09-19T15:11:54;99120.98;;;29.11;28.00
61805;BME280;47725;47.912;7.356;2023-09-19T15:16:04;99118.97;;;29.03;27.97
61805;BME280;47725;47.912;7.356;2023-09-19T15:19:54;99117.04;;;28.98;28.41
61805;BME280;47725;47.912;7.356;2023-09-19T15:23:54;99115.94;;;28.96;28.26
61805;BME280;47725;47.912;7.356;2023-09-19T15:27:54;99114.61;;;28.92;28.02
61805;BME280;47725;47.912;7.356;2023-09-19T15:31:54;99114.64;;;28.88;28.09
61805;BME280;47725;47.912;7.356;2023-09-19T15:36:06;99113.92;;;28.82;28.64
61805;BME280;47725;47.912;7.356;2023-09-19T15:39:54;99113.05;;;28.76;28.41
61805;BME280;47725;47.912;7.356;2023-09-19T15:43:57;99112.75;;;28.66;28.34
61805;BME280;47725;47.912;7.356;2023-09-19T15:47:54;99111.77;;;28.52;28.62
61805;BME280;47725;47.912;7.356;2023-09-19T15:51:54;99111.18;;;28.35;28.83
61805;BME280;47725;47.912;7.356;2023-09-19T15:55:54;99110.13;;;28.17;29.21
61805;BME280;47725;47.912;7.356;2023-09-19T15:59:54;99110.61;;;28.00;29.56
61805;BME280;47725;47.912;7.356;2023-09-19T16:03:54;99110.72;;;27.89;29.70
61805;BME280;47725;47.912;7.356;2023-09-19T16:07:54;99109.59;;;27.80;29.69
61805;BME280;47725;47.912;7.356;2023-09-19T16:11:54;99109.03;;;27.73;29.70
61805;BME280;47725;47.912;7.356;2023-09-19T16:15:54;99108.20;;;27.64;30.00
61805;BME280;47725;47.912;7.356;2023-09-19T16:19:54;99107.08;;;27.58;29.99
61805;BME280;47725;47.912;7.356;2023-09-19T16:23:55;99106.55;;;27.52;30.66
61805;BME280;47725;47.912;7.356;2023-09-19T16:27:54;99106.38;;;27.47;30.81
61805;BME280;47725;47.912;7.356;2023-09-19T16:31:54;99105.32;;;27.43;30.91
61805;BME280;47725;47.912;7.356;2023-09-19T16:35:54;99104.15;;;27.39;31.15
61805;BME280;47725;47.912;7.356;2023-09-19T16:39:54;99102.34;;;27.36;31.53
61805;BME280;47725;47.912;7.356;2023-09-19T16:43:54;99101.58;;;27.32;31.62
61805;BME280;47725;47.912;7.356;2023-09-19T16:47:54;99101.40;;;27.28;32.09
61805;BME280;47725;47.912;7.356;2023-09-19T16:51:54;99101.79;;;27.26;31.93
61805;BME280;47725;47.912;7.356;2023-09-19T16:55:54;99102.12;;;27.23;32.10
61805;BME280;47725;47.912;7.356;2023-09-19T16:59:54;99102.31;;;27.19;32.71
61805;BME280;47725;47.912;7.356;2023-09-19T17:03:54;99102.37;;;27.15;32.75
61805;BME280;47725;47.912;7.356;2023-09-19T17:07:54;99102.98;;;27.11;33.07
61805;BME280;47725;47.912;7.356;2023-09-19T17:11:54;99105.03;;;27.06;33.81
61805;BME280;47725;47.912;7.356;2023-09-19T17:16:00;99107.40;;;26.99;33.76
61805;BME280;47725;47.912;7.356;2023-09-19T17:19:54;99110.82;;;26.92;33.87
61805;BME280;47725;47.912;7.356;2023-09-19T17:23:54;99114.87;;;26.82;34.37
61805;BME280;47725;47.912;7.356;2023-09-19T17:27:54;99116.72;;;26.72;34.71
61805;BME280;47725;47.912;7.356;2023-09-19T17:31:54;99118.45;;;26.61;34.96
61805;BME280;47725;47.912;7.356;2023-09-19T17:36:13;99119.16;;;26.51;35.17
61805;BME280;47725;47.912;7.356;2023-09-19T17:39:54;99119.23;;;26.40;35.74
61805;BME280;47725;47.912;7.356;2023-09-19T17:43:58;99119.78;;;26.29;35.88
61805;BME280;47725;47.912;7.356;2023-09-19T17:47:54;99119.09;;;26.17;36.08
61805;BME280;47725;47.912;7.356;2023-09-19T17:51:54;99119.17;;;26.06;36.04
61805;BME280;47725;47.912;7.356;2023-09-19T17:55:54;99121.36;;;25.96;36.11
61805;BME280;47725;47.912;7.356;2023-09-19T17:59:54;99122.54;;;25.87;36.19
61805;BME280;47725;47.912;7.356;2023-09-19T18:03:54;99124.05;;;25.77;36.43
61805;BME280;47725;47.912;7.356;2023-09-19T18:07:54;99126.51;;;25.67;36.63
61805;BME280;47725;47.912;7.356;2023-09-19T18:11:54;99129.38;;;25.57;37.34
61805;BME280;47725;47.912;7.356;2023-09-19T18:15:54;99132.70;;;25.46;38.29
61805;BME280;47725;47.912;7.356;2023-09-19T18:19:54;99135.85;;;25.34;38.88
61805;BME280;47725;47.912;7.356;2023-09-19T18:23:54;99138.51;;;25.21;38.15
61805;BME280;47725;47.912;7.356;2023-09-19T18:27:54;99141.56;;;25.08;38.13
61805;BME280;47725;47.912;7.356;2023-09-19T18:31:54;99145.43;;;24.96;38.57
61805;BME280;47725;47.912;7.356;2023-09-19T18:35:59;99149.14;;;24.84;38.67
61805;BME280;47725;47.912;7.356;2023-09-19T18:39:54;99153.70;;;24.73;38.82
61805;BME280;47725;47.912;7.356;2023-09-19T18:43:54;99157.98;;;24.63;39.49
61805;BME280;47725;47.912;7.356;2023-09-19T18:47:54;99161.56;;;24.52;40.09
61805;BME280;47725;47.912;7.356;2023-09-19T18:51:54;99164.56;;;24.39;42.04
61805;BME280;47725;47.912;7.356;2023-09-19T18:56:03;99167.57;;;24.27;42.08
61805;BME280;47725;47.912;7.356;2023-09-19T18:59:54;99170.33;;;24.17;41.71
61805;BME280;47725;47.912;7.356;2023-09-19T19:03:54;99172.67;;;24.08;41.44
61805;BME280;47725;47.912;7.356;2023-09-19T19:07:54;99174.19;;;23.99;41.26
61805;BME280;47725;47.912;7.356;2023-09-19T19:11:54;99175.73;;;23.90;41.02
61805;BME280;47725;47.912;7.356;2023-09-19T19:15:57;99177.35;;;23.84;40.82
61805;BME280;47725;47.912;7.356;2023-09-19T19:19:54;99179.35;;;23.79;41.35
61805;BME280;47725;47.912;7.356;2023-09-19T19:23:54;99182.30;;;23.73;41.57
61805;BME280;47725;47.912;7.356;2023-09-19T19:27:54;99184.42;;;23.65;41.96
61805;BME280;47725;47.912;7.356;2023-09-19T19:31:54;99184.03;;;23.54;42.18
61805;BME280;47725;47.912;7.356;2023-09-19T19:36:03;99185.24;;;23.42;43.42
61805;BME280;47725;47.912;7.356;2023-09-19T19:39:54;99186.55;;;23.28;44.23
61805;BME280;47725;47.912;7.356;2023-09-19T19:43:54;99187.84;;;23.16;43.75
61805;BME280;47725;47.912;7.356;2023-09-19T19:47:54;99189.54;;;23.05;44.09
61805;BME280;47725;47.912;7.356;2023-09-19T19:51:54;99190.98;;;22.93;44.68
61805;BME280;47725;47.912;7.356;2023-09-19T19:55:56;99191.88;;;22.81;44.85
61805;BME280;47725;47.912;7.356;2023-09-19T19:59:54;99194.61;;;22.71;44.85
61805;BME280;47725;47.912;7.356;2023-09-19T20:03:54;99197.12;;;22.61;44.90
61805;BME280;47725;47.912;7.356;2023-09-19T20:07:54;99199.36;;;22.51;45.12
61805;BME280;47725;47.912;7.356;2023-09-19T20:11:54;99201.45;;;22.42;45.10
61805;BME280;47725;47.912;7.356;2023-09-19T20:15:54;99204.46;;;22.35;44.63
61805;BME280;47725;47.912;7.356;2023-09-19T20:19:54;99206.33;;;22.29;44.77
61805;BME280;47725;47.912;7.356;2023-09-19T20:23:54;99208.24;;;22.24;44.52
61805;BME280;47725;47.912;7.356;2023-09-19T20:27:54;99209.98;;;22.21;44.19
61805;BME280;47725;47.912;7.356;2023-09-19T20:31:54;99210.53;;;22.20;44.48
61805;BME280;47725;47.912;7.356;2023-09-19T20:35:56;99210.92;;;22.18;44.10
61805;BME280;47725;47.912;7.356;2023-09-19T20:39:54;99210.69;;;22.16;43.93
61805;BME280;47725;47.912;7.356;2023-09-19T20:43:54;99211.95;;;22.14;44.41
61805;BME280;47725;47.912;7.356;2023-09-19T20:47:54;99214.01;;;22.12;44.65
61805;BME280;47725;47.912;7.356;2023-09-19T20:51:54;99215.48;;;22.08;44.84
61805;BME280;47725;47.912;7.356;2023-09-19T20:55:58;99216.02;;;22.03;45.20
61805;BME280;47725;47.912;7.356;2023-09-19T20:59:54;99215.52;;;21.97;45.71
61805;BME280;47725;47.912;7.356;2023-09-19T21:03:54;99214.81;;;21.92;45.33
61805;BME280;47725;47.912;7.356;2023-09-19T21:07:54;99216.05;;;21.87;45.75
61805;BME280;47725;47.912;7.356;2023-09-19T21:11:54;99216.75;;;21.81;46.30
61805;BME280;47725;47.912;7.356;2023-09-19T21:15:54;99217.07;;;21.75;46.55
61805;BME280;47725;47.912;7.356;2023-09-19T21:19:54;99216.63;;;21.70;46.57
61805;BME280;47725;47.912;7.356;2023-09-19T21:23:54;99214.37;;;21.64;46.86
61805;BME280;47725;47.912;7.356;2023-09-19T21:27:54;99213.78;;;21.57;46.91
61805;BME280;47725;47.912;7.356;2023-09-19T21:31:54;99213.00;;;21.51;46.99
61805;BME280;47725;47.912;7.356;2023-09-19T21:35:54;99212.05;;;21.44;47.85
61805;BME280;47725;47.912;7.356;2023-09-19T21:39:54;99210.22;;;21.36;48.08
61805;BME280;47725;47.912;7.356;2023-09-19T21:43:54;99208.11;;;21.28;48.44